Time;durP1;ratioP1;P1;durP2;ratioP2;P2;SDS_P1;SDS_P2;PMS_P1;PMS_P2;Temp;Humidity;BMP_temperature;BMP_pressure;BME280_temperature;BME280_humidity;BME280_pressure;Samples;Min_cycle;Max_cycle;Signal;HPM_P1;HPM_P2
2023/09/03 00:01:32;;;;;;;0.10;0.10;;;;;;;;;;5096731;28;20055;-44
2023/09/03 00:03:58;;;;;;;0.10;0.10;;;;;;;;;;5096457;28;20083;-44
2023/09/03 00:06:23;;;;;;;0.10;0.10;;;;;;;;;;5096619;28;20462;-45
2023/09/03 00:08:49;;;;;;;0.10;0.10;;;;;;;;;;5096127;28;20480;-45
2023/09/03 00:11:15;;;;;;;0.17;0.17;;;;;;;;;;5096085;28;20056;-43
2023/09/03 00:13:41;;;;;;;0.10;0.10;;;;;;;;;;5096521;28;20052;-44
2023/09/03 00:16:07;;;;;;;0.10;0.10;;;;;;;;;;5097240;28;20043;-44
2023/09/03 00:18:32;;;;;;;0.20;0.20;;;;;;;;;;5099738;28;20112;-43
2023/09/03 00:21:00;;;;;;;0.10;0.10;;;;;;;;;;5108200;28;20039;-44
2023/09/03 00:23:26;;;;;;;0.20;0.20;;;;;;;;;;5120036;28;20051;-43
2023/09/03 00:25:52;;;;;;;0.10;0.10;;;;;;;;;;5120357;28;20261;-45
2023/09/03 00:28:18;;;;;;;0.13;0.13;;;;;;;;;;5101381;27;20051;-43
2023/09/03 00:30:44;;;;;;;0.15;0.15;;;;;;;;;;5135796;27;20054;-44
2023/09/03 00:33:09;;;;;;;0.10;0.10;;;;;;;;;;5106602;27;20065;-44
2023/09/03 00:35:35;;;;;;;0.10;0.10;;;;;;;;;;5118057;28;20532;-45
2023/09/03 00:38:00;;;;;;;0.10;0.10;;;;;;;;;;5119178;28;20449;-43
2023/09/03 00:40:26;;;;;;;0.10;0.10;;;;;;;;;;5119890;28;20047;-44
2023/09/03 00:42:51;;;;;;;0.10;0.10;;;;;;;;;;5119958;27;20484;-43
2023/09/03 00:45:17;;;;;;;0.10;0.10;;;;;;;;;;5119935;28;20120;-44
2023/09/03 00:47:43;;;;;;;0.10;0.10;;;;;;;;;;5120272;28;20445;-44
2023/09/03 00:50:09;;;;;;;0.10;0.10;;;;;;;;;;5120177;28;20058;-44
2023/09/03 00:52:35;;;;;;;0.10;0.10;;;;;;;;;;5120455;28;20075;-44
2023/09/03 00:55:01;;;;;;;0.10;0.10;;;;;;;;;;5120280;28;20089;-43
2023/09/03 00:57:27;;;;;;;0.10;0.10;;;;;;;;;;5119638;28;20100;-44
2023/09/03 00:59:53;;;;;;;0.20;0.20;;;;;;;;;;5120229;28;20051;-44
2023/09/03 01:02:19;;;;;;;0.20;0.20;;;;;;;;;;5120093;28;20050;-43
2023/09/03 01:04:45;;;;;;;0.10;0.10;;;;;;;;;;5120124;28;20457;-44
2023/09/03 01:07:11;;;;;;;0.10;0.10;;;;;;;;;;5120195;28;20047;-43
2023/09/03 01:09:38;;;;;;;0.10;0.10;;;;;;;;;;5119626;28;20403;-43
2023/09/03 01:12:10;;;;;;;0.10;0.10;;;;;;;;;;5119796;28;20252;-44
2023/09/03 01:14:39;;;;;;;0.10;0.10;;;;;;;;;;5120060;28;20116;-44
2023/09/03 01:17:12;;;;;;;0.20;0.20;;;;;;;;;;5119953;28;20043;-44
2023/09/03 01:19:57;;;;;;;0.10;0.10;;;;;;;;;;5119523;28;20311;-44
2023/09/03 01:22:43;;;;;;;0.15;0.15;;;;;;;;;;5104653;28;20452;-44
2023/09/03 01:25:17;;;;;;;0.10;0.10;;;;;;;;;;5118500;28;20509;-43
2023/09/03 01:27:51;;;;;;;0.10;0.10;;;;;;;;;;5117631;27;20047;-43
2023/09/03 01:30:17;;;;;;;0.20;0.20;;;;;;;;;;5121934;27;20074;-43
2023/09/03 01:32:45;;;;;;;0.10;0.10;;;;;;;;;;5140329;27;20054;-44
2023/09/03 01:35:11;;;;;;;0.10;0.10;;;;;;;;;;5139694;27;20053;-45
2023/09/03 01:37:36;;;;;;;0.10;0.10;;;;;;;;;;5115839;27;20087;-44
2023/09/03 01:40:02;;;;;;;0.10;0.10;;;;;;;;;;5114379;28;20074;-45
2023/09/03 01:42:27;;;;;;;0.10;0.10;;;;;;;;;;5119335;27;20102;-44
2023/09/03 01:44:53;;;;;;;0.10;0.10;;;;;;;;;;5119524;28;20498;-43
2023/09/03 01:47:27;;;;;;;0.30;0.30;;;;;;;;;;5119232;28;20047;-43
2023/09/03 01:50:01;;;;;;;0.20;0.20;;;;;;;;;;5109027;27;20476;-45
2023/09/03 01:52:32;;;;;;;0.10;0.10;;;;;;;;;;5098222;28;20044;-44
2023/09/03 01:54:59;;;;;;;0.10;0.10;;;;;;;;;;5098034;28;20825;-45
2023/09/03 01:57:28;;;;;;;0.13;0.13;;;;;;;;;;5097784;28;20442;-45
2023/09/03 01:59:58;;;;;;;0.10;0.10;;;;;;;;;;5098298;28;20043;-43
2023/09/03 02:02:24;;;;;;;0.10;0.10;;;;;;;;;;5097900;28;20484;-45
2023/09/03 02:04:51;;;;;;;0.10;0.10;;;;;;;;;;5097858;28;20099;-45
2023/09/03 02:07:16;;;;;;;0.10;0.10;;;;;;;;;;5097764;28;20093;-43
2023/09/03 02:09:42;;;;;;;0.10;0.10;;;;;;;;;;5097587;28;20051;-45
2023/09/03 02:12:08;;;;;;;0.30;0.30;;;;;;;;;;5098049;28;20067;-45
2023/09/03 02:14:33;;;;;;;0.10;0.10;;;;;;;;;;5079395;28;20357;-45
2023/09/03 02:16:59;;;;;;;0.10;0.10;;;;;;;;;;5097925;28;20291;-44
2023/09/03 02:19:25;;;;;;;0.10;0.10;;;;;;;;;;5097368;28;20421;-44
2023/09/03 02:21:50;;;;;;;0.10;0.10;;;;;;;;;;5097729;28;20202;-44
2023/09/03 02:24:16;;;;;;;0.10;0.10;;;;;;;;;;5104754;28;20039;-44
2023/09/03 02:26:42;;;;;;;0.10;0.10;;;;;;;;;;5114419;27;20050;-44
2023/09/03 02:29:08;;;;;;;0.10;0.10;;;;;;;;;;5122132;27;20153;-44
2023/09/03 02:31:33;;;;;;;0.10;0.10;;;;;;;;;;5138819;27;20101;-44
2023/09/03 02:33:59;;;;;;;0.10;0.10;;;;;;;;;;5138591;27;20051;-45
2023/09/03 02:36:25;;;;;;;0.10;0.10;;;;;;;;;;5138553;27;20375;-44
2023/09/03 02:39:05;;;;;;;0.10;0.10;;;;;;;;;;5121256;27;20043;-45
2023/09/03 02:41:31;;;;;;;0.10;0.10;;;;;;;;;;5117628;27;20058;-43
2023/09/03 02:43:58;;;;;;;0.10;0.10;;;;;;;;;;5118793;28;20039;-45
2023/09/03 02:46:24;;;;;;;0.10;0.10;;;;;;;;;;5099707;28;20070;-42
2023/09/03 02:48:50;;;;;;;0.20;0.20;;;;;;;;;;5118086;28;20115;-44
2023/09/03 02:51:16;;;;;;;0.10;0.10;;;;;;;;;;5118654;28;20043;-44
2023/09/03 02:53:43;;;;;;;0.20;0.20;;;;;;;;;;5117836;28;20055;-44
2023/09/03 02:56:09;;;;;;;0.10;0.10;;;;;;;;;;5118082;28;20047;-43
2023/09/03 02:58:35;;;;;;;0.10;0.10;;;;;;;;;;5117999;28;20055;-45
2023/09/03 03:01:05;;;;;;;0.10;0.10;;;;;;;;;;5118046;28;20547;-45
2023/09/03 03:03:31;;;;;;;0.10;0.10;;;;;;;;;;5117868;28;20157;-43
2023/09/03 03:05:56;;;;;;;0.10;0.10;;;;;;;;;;5117372;28;20042;-44
2023/09/03 03:08:22;;;;;;;0.10;0.10;;;;;;;;;;5117398;28;20083;-46
2023/09/03 03:10:48;;;;;;;0.10;0.10;;;;;;;;;;5117514;28;20072;-43
2023/09/03 03:13:13;;;;;;;0.10;0.10;;;;;;;;;;5117804;28;20043;-45
2023/09/03 03:15:39;;;;;;;0.10;0.10;;;;;;;;;;5118006;28;20047;-43
2023/09/03 03:18:05;;;;;;;0.10;0.10;;;;;;;;;;5117493;28;20438;-43
2023/09/03 03:20:30;;;;;;;0.10;0.10;;;;;;;;;;5118012;28;20514;-45
2023/09/03 03:22:56;;;;;;;0.10;0.10;;;;;;;;;;5118108;28;20051;-44
2023/09/03 03:25:21;;;;;;;0.10;0.10;;;;;;;;;;5117812;28;20043;-44
2023/09/03 03:27:47;;;;;;;0.10;0.10;;;;;;;;;;5120918;27;20126;-44
2023/09/03 03:30:13;;;;;;;0.10;0.10;;;;;;;;;;5097511;28;20510;-43
2023/09/03 03:32:38;;;;;;;0.10;0.10;;;;;;;;;;5097536;28;20050;-43
2023/09/03 03:35:04;;;;;;;0.10;0.10;;;;;;;;;;5097231;28;20154;-42
2023/09/03 03:37:30;;;;;;;0.10;0.10;;;;;;;;;;5096986;28;20044;-43
2023/09/03 03:39:55;;;;;;;0.10;0.10;;;;;;;;;;5106355;28;20046;-45
2023/09/03 03:42:21;;;;;;;0.10;0.10;;;;;;;;;;5117532;27;20441;-43
2023/09/03 03:44:46;;;;;;;0.10;0.10;;;;;;;;;;5117505;28;20051;-42
2023/09/03 03:47:12;;;;;;;0.10;0.10;;;;;;;;;;5117740;28;20185;-42
2023/09/03 03:49:37;;;;;;;0.10;0.10;;;;;;;;;;5117032;28;20430;-43
2023/09/03 03:52:03;;;;;;;0.10;0.10;;;;;;;;;;5119873;27;20085;-45
2023/09/03 03:54:30;;;;;;;0.10;0.10;;;;;;;;;;5121226;28;20055;-43
2023/09/03 03:56:56;;;;;;;0.10;0.10;;;;;;;;;;5121019;28;20046;-42
2023/09/03 03:59:21;;;;;;;0.10;0.10;;;;;;;;;;5120678;28;20047;-43
2023/09/03 04:01:47;;;;;;;0.10;0.10;;;;;;;;;;5120902;28;20060;-43
2023/09/03 04:04:12;;;;;;;0.17;0.17;;;;;;;;;;5120870;28;20446;-43
2023/09/03 04:06:38;;;;;;;0.10;0.10;;;;;;;;;;5120852;28;20055;-43
2023/09/03 04:09:04;;;;;;;0.10;0.10;;;;;;;;;;5120790;28;20525;-45
2023/09/03 04:11:29;;;;;;;0.10;0.10;;;;;;;;;;5120655;28;20069;-43
2023/09/03 04:13:55;;;;;;;0.10;0.10;;;;;;;;;;5120917;28;20454;-43
2023/09/03 04:16:22;;;;;;;0.10;0.10;;;;;;;;;;5120915;28;20043;-45
2023/09/03 04:18:49;;;;;;;0.10;0.10;;;;;;;;;;5120430;28;20053;-42
2023/09/03 04:21:14;;;;;;;0.10;0.10;;;;;;;;;;5120308;28;20051;-43
2023/09/03 04:23:40;;;;;;;0.10;0.10;;;;;;;;;;5120464;28;20064;-45
2023/09/03 04:26:05;;;;;;;0.10;0.10;;;;;;;;;;5120326;27;20078;-43
2023/09/03 04:28:31;;;;;;;0.10;0.10;;;;;;;;;;5123256;27;20051;-44
2023/09/03 04:30:59;;;;;;;0.20;0.20;;;;;;;;;;5104912;27;20100;-46
2023/09/03 04:33:25;;;;;;;0.10;0.10;;;;;;;;;;5100239;28;20044;-43
2023/09/03 04:35:58;;;;;;;0.10;0.10;;;;;;;;;;5100233;28;20322;-43
2023/09/03 04:38:24;;;;;;;0.10;0.10;;;;;;;;;;5109589;28;20075;-43
2023/09/03 04:40:50;;;;;;;0.10;0.10;;;;;;;;;;5120088;28;20075;-45
2023/09/03 04:43:15;;;;;;;0.10;0.10;;;;;;;;;;5120238;27;20051;-43
2023/09/03 04:45:44;;;;;;;0.10;0.10;;;;;;;;;;5120140;27;20050;-44
2023/09/03 04:48:10;;;;;;;0.13;0.13;;;;;;;;;;5120365;27;20075;-44
2023/09/03 04:50:36;;;;;;;0.10;0.10;;;;;;;;;;5120211;28;20043;-43
2023/09/03 04:53:04;;;;;;;;;;;;;;;;;;5121149;28;20047;-44
2023/09/03 04:55:31;;;;;;;0.10;0.10;;;;;;;;;;5120104;28;20019;-44
2023/09/03 04:57:56;;;;;;;0.10;0.10;;;;;;;;;;5119913;28;20839;-45
2023/09/03 05:00:22;;;;;;;0.20;0.20;;;;;;;;;;5119863;28;20184;-45
2023/09/03 05:02:48;;;;;;;0.10;0.10;;;;;;;;;;5119254;27;20511;-45
2023/09/03 05:05:13;;;;;;;0.10;0.10;;;;;;;;;;5119132;28;20051;-44
2023/09/03 05:07:39;;;;;;;0.10;0.10;;;;;;;;;;5119345;28;20047;-44
2023/09/03 05:10:05;;;;;;;0.10;0.10;;;;;;;;;;5119246;28;20743;-46
2023/09/03 05:12:32;;;;;;;0.10;0.10;;;;;;;;;;5119302;28;20039;-44
2023/09/03 05:14:57;;;;;;;0.10;0.10;;;;;;;;;;5119483;28;20384;-43
2023/09/03 05:17:23;;;;;;;0.20;0.20;;;;;;;;;;5119018;28;20108;-45
2023/09/03 05:19:49;;;;;;;0.10;0.10;;;;;;;;;;5119498;28;20078;-43
2023/09/03 05:22:14;;;;;;;0.10;0.10;;;;;;;;;;5119331;28;20047;-44
2023/09/03 05:24:40;;;;;;;0.20;0.20;;;;;;;;;;5119219;28;20074;-45
2023/09/03 05:27:05;;;;;;;0.10;0.10;;;;;;;;;;5113656;27;20528;-43
2023/09/03 05:29:31;;;;;;;0.20;0.20;;;;;;;;;;5118601;28;20051;-43
2023/09/03 05:31:56;;;;;;;0.10;0.10;;;;;;;;;;5119209;27;20409;-44
2023/09/03 05:34:23;;;;;;;0.30;0.30;;;;;;;;;;5118914;27;20091;-44
2023/09/03 05:36:49;;;;;;;0.10;0.10;;;;;;;;;;5119136;27;20058;-45
2023/09/03 05:39:14;;;;;;;0.10;0.10;;;;;;;;;;5101747;27;20412;-46
2023/09/03 05:41:40;;;;;;;0.10;0.10;;;;;;;;;;5098097;28;20052;-44
2023/09/03 05:44:09;;;;;;;0.15;0.15;;;;;;;;;;5113182;28;20139;-46
2023/09/03 05:46:35;;;;;;;0.10;0.10;;;;;;;;;;5118388;27;20043;-44
2023/09/03 05:49:01;;;;;;;0.10;0.10;;;;;;;;;;5118969;28;20467;-44
2023/09/03 05:51:27;;;;;;;0.20;0.20;;;;;;;;;;5111916;27;20051;-43
2023/09/03 05:53:53;;;;;;;0.20;0.20;;;;;;;;;;5118916;28;20540;-45
2023/09/03 05:56:19;;;;;;;0.10;0.10;;;;;;;;;;5119040;28;20043;-46
2023/09/03 05:58:44;;;;;;;0.20;0.20;;;;;;;;;;5105858;28;20116;-43
2023/09/03 06:01:11;;;;;;;0.20;0.20;;;;;;;;;;5098175;28;20075;-46
2023/09/03 06:03:37;;;;;;;0.10;0.10;;;;;;;;;;5098597;28;20046;-44
2023/09/03 06:06:03;;;;;;;0.20;0.20;;;;;;;;;;5098312;28;20044;-43
2023/09/03 06:08:29;;;;;;;0.20;0.20;;;;;;;;;;5098050;28;20055;-43
2023/09/03 06:10:56;;;;;;;0.20;0.20;;;;;;;;;;5098503;28;20135;-42
2023/09/03 06:13:22;;;;;;;0.10;0.10;;;;;;;;;;5097850;28;20078;-44
2023/09/03 06:15:48;;;;;;;0.20;0.20;;;;;;;;;;5098136;28;20055;-43
2023/09/03 06:18:14;;;;;;;0.10;0.10;;;;;;;;;;5098202;28;20043;-43
2023/09/03 06:20:39;;;;;;;0.20;0.20;;;;;;;;;;5098271;28;20062;-44
2023/09/03 06:23:05;;;;;;;0.10;0.10;;;;;;;;;;5098094;28;20089;-43
2023/09/03 06:25:30;;;;;;;0.10;0.10;;;;;;;;;;5113025;27;20137;-44
2023/09/03 06:27:56;;;;;;;0.10;0.10;;;;;;;;;;5121059;27;20047;-43
2023/09/03 06:30:21;;;;;;;0.10;0.10;;;;;;;;;;5118281;28;20084;-46
2023/09/03 06:32:47;;;;;;;0.10;0.10;;;;;;;;;;5117917;28;20103;-45
2023/09/03 06:35:12;;;;;;;0.10;0.10;;;;;;;;;;5118391;27;20050;-44
2023/09/03 06:37:38;;;;;;;0.20;0.20;;;;;;;;;;5114489;27;20109;-44
2023/09/03 06:40:04;;;;;;;0.10;0.10;;;;;;;;;;5097618;28;20507;-44
2023/09/03 06:42:29;;;;;;;0.20;0.20;;;;;;;;;;5098008;28;20711;-44
2023/09/03 06:44:55;;;;;;;0.10;0.10;;;;;;;;;;5104335;28;20051;-43
2023/09/03 06:47:21;;;;;;;0.20;0.20;;;;;;;;;;5116211;28;20434;-43
2023/09/03 06:49:49;;;;;;;0.10;0.10;;;;;;;;;;5117912;27;20123;-43
2023/09/03 06:52:15;;;;;;;0.17;0.17;;;;;;;;;;5118148;28;20411;-44
2023/09/03 06:54:40;;;;;;;0.20;0.20;;;;;;;;;;5118232;28;20043;-45
2023/09/03 06:57:06;;;;;;;0.20;0.20;;;;;;;;;;5118162;28;20047;-43
2023/09/03 06:59:51;;;;;;;0.10;0.10;;;;;;;;;;5098001;28;20060;-45
2023/09/03 07:02:17;;;;;;;0.10;0.10;;;;;;;;;;5097863;28;20059;-43
2023/09/03 07:04:42;;;;;;;0.20;0.20;;;;;;;;;;5097850;28;20055;-42
2023/09/03 07:07:09;;;;;;;0.10;0.10;;;;;;;;;;5097548;28;20043;-43
2023/09/03 07:09:35;;;;;;;0.20;0.20;;;;;;;;;;5116595;28;20043;-44
2023/09/03 07:12:01;;;;;;;0.17;0.17;;;;;;;;;;5117651;28;20043;-45
2023/09/03 07:14:26;;;;;;;0.10;0.10;;;;;;;;;;5117510;28;20047;-44
2023/09/03 07:16:52;;;;;;;0.10;0.10;;;;;;;;;;5118050;28;20472;-45
2023/09/03 07:19:18;;;;;;;0.10;0.10;;;;;;;;;;5117385;28;20039;-43
2023/09/03 07:21:43;;;;;;;0.20;0.20;;;;;;;;;;5118020;28;20575;-44
2023/09/03 07:24:09;;;;;;;0.10;0.10;;;;;;;;;;5115688;28;20047;-43
2023/09/03 07:26:34;;;;;;;0.10;0.10;;;;;;;;;;5120562;27;20426;-43
2023/09/03 07:29:01;;;;;;;0.10;0.10;;;;;;;;;;5121201;28;20055;-43
2023/09/03 07:31:27;;;;;;;0.10;0.10;;;;;;;;;;5121787;28;20043;-45
2023/09/03 07:33:53;;;;;;;0.10;0.10;;;;;;;;;;5121147;28;20069;-43
2023/09/03 07:36:18;;;;;;;0.13;0.13;;;;;;;;;;5121186;28;20051;-45
2023/09/03 07:38:44;;;;;;;0.10;0.10;;;;;;;;;;5120748;28;20480;-44
2023/09/03 07:41:09;;;;;;;0.10;0.10;;;;;;;;;;5121218;28;20061;-43
2023/09/03 07:43:35;;;;;;;0.10;0.10;;;;;;;;;;5121211;28;20074;-45
2023/09/03 07:46:00;;;;;;;0.10;0.10;;;;;;;;;;5121202;28;20075;-44
2023/09/03 07:48:26;;;;;;;0.20;0.20;;;;;;;;;;5120329;28;20047;-43
2023/09/03 07:50:52;;;;;;;0.10;0.10;;;;;;;;;;5120432;28;20127;-45
2023/09/03 07:53:18;;;;;;;0.10;0.10;;;;;;;;;;5120720;28;20043;-44
2023/09/03 07:55:43;;;;;;;0.10;0.10;;;;;;;;;;5120804;28;20466;-43
2023/09/03 07:58:09;;;;;;;0.10;0.10;;;;;;;;;;5120595;28;20047;-43
2023/09/03 08:00:35;;;;;;;0.20;0.20;;;;;;;;;;5120895;28;20054;-44
2023/09/03 08:03:00;;;;;;;0.10;0.10;;;;;;;;;;5121019;28;20054;-44
2023/09/03 08:05:26;;;;;;;0.10;0.10;;;;;;;;;;5120887;28;20046;-44
2023/09/03 08:07:52;;;;;;;0.10;0.10;;;;;;;;;;5120896;28;20047;-44
2023/09/03 08:10:21;;;;;;;0.10;0.10;;;;;;;;;;5120452;28;20490;-43
2023/09/03 08:12:46;;;;;;;0.10;0.10;;;;;;;;;;5120873;28;20051;-43
2023/09/03 08:15:13;;;;;;;0.20;0.20;;;;;;;;;;5120787;28;20103;-45
2023/09/03 08:17:38;;;;;;;0.10;0.10;;;;;;;;;;5120791;28;20131;-43
2023/09/03 08:20:04;;;;;;;0.10;0.10;;;;;;;;;;5121156;28;20093;-47
2023/09/03 08:22:32;;;;;;;0.10;0.10;;;;;;;;;;5121129;28;20604;-45
2023/09/03 08:24:57;;;;;;;0.10;0.10;;;;;;;;;;5122364;27;20275;-45
2023/09/03 08:27:23;;;;;;;0.10;0.10;;;;;;;;;;5139011;27;20352;-44
2023/09/03 08:29:48;;;;;;;0.20;0.20;;;;;;;;;;5120850;28;20051;-43
2023/09/03 08:32:14;;;;;;;0.20;0.20;;;;;;;;;;5121179;28;20157;-43
2023/09/03 08:34:39;;;;;;;0.10;0.10;;;;;;;;;;5120053;28;20482;-43
2023/09/03 08:37:05;;;;;;;0.10;0.10;;;;;;;;;;5119890;27;20062;-43
2023/09/03 08:39:30;;;;;;;0.10;0.10;;;;;;;;;;5120508;28;20450;-43
2023/09/03 08:41:57;;;;;;;0.10;0.10;;;;;;;;;;5120705;28;20160;-43
2023/09/03 08:44:34;;;;;;;0.15;0.15;;;;;;;;;;5120594;28;20564;-44
2023/09/03 08:47:01;;;;;;;0.10;0.10;;;;;;;;;;5120603;28;20090;-43
2023/09/03 08:49:29;;;;;;;0.10;0.10;;;;;;;;;;5119742;28;20055;-44
2023/09/03 08:51:56;;;;;;;0.10;0.10;;;;;;;;;;5120032;28;20066;-44
2023/09/03 08:54:22;;;;;;;0.20;0.20;;;;;;;;;;5120085;28;20054;-42
2023/09/03 08:56:48;;;;;;;0.10;0.10;;;;;;;;;;5120127;27;20817;-44
2023/09/03 08:59:13;;;;;;;0.10;0.10;;;;;;;;;;5103480;27;20055;-43
2023/09/03 09:01:39;;;;;;;1.08;0.32;;;;;;;;;;5104913;28;20054;-46
2023/09/03 09:04:05;;;;;;;0.10;0.10;;;;;;;;;;5120209;27;20074;-44
2023/09/03 09:06:31;;;;;;;0.10;0.10;;;;;;;;;;5120175;28;20047;-45
2023/09/03 09:08:58;;;;;;;0.10;0.10;;;;;;;;;;5120082;28;20046;-43
2023/09/03 09:11:26;;;;;;;0.10;0.10;;;;;;;;;;5119902;28;20047;-43
2023/09/03 09:13:55;;;;;;;0.10;0.10;;;;;;;;;;5119553;28;20570;-43
2023/09/03 09:16:21;;;;;;;0.10;0.10;;;;;;;;;;5120033;28;20055;-43
2023/09/03 09:18:46;;;;;;;0.10;0.10;;;;;;;;;;5119579;28;20078;-44
2023/09/03 09:21:12;;;;;;;0.10;0.10;;;;;;;;;;5119859;28;20051;-43
2023/09/03 09:23:38;;;;;;;0.20;0.20;;;;;;;;;;5112754;27;20040;-43
2023/09/03 09:26:18;;;;;;;0.10;0.10;;;;;;;;;;5099650;28;20104;-44
2023/09/03 09:28:56;;;;;;;0.20;0.20;;;;;;;;;;5111878;28;20483;-43
2023/09/03 09:31:25;;;;;;;0.10;0.10;;;;;;;;;;5119895;28;20050;-43
2023/09/03 09:33:50;;;;;;;0.10;0.10;;;;;;;;;;5114615;27;20373;-43
2023/09/03 09:36:16;;;;;;;0.10;0.10;;;;;;;;;;5103795;28;20500;-43
2023/09/03 09:38:42;;;;;;;0.10;0.10;;;;;;;;;;5119180;27;20480;-43
2023/09/03 09:41:23;;;;;;;0.10;0.10;;;;;;;;;;5119481;28;20668;-43
2023/09/03 09:43:49;;;;;;;0.10;0.10;;;;;;;;;;5120008;28;20047;-43
2023/09/03 09:46:31;;;;;;;0.10;0.10;;;;;;;;;;5119933;28;20092;-44
2023/09/03 09:48:57;;;;;;;0.20;0.20;;;;;;;;;;5118467;27;20067;-42
2023/09/03 09:51:23;;;;;;;0.10;0.10;;;;;;;;;;5119834;28;20050;-43
2023/09/03 09:53:56;;;;;;;0.10;0.10;;;;;;;;;;5120086;27;20406;-43
2023/09/03 09:56:27;;;;;;;0.10;0.10;;;;;;;;;;5119992;27;20070;-43
2023/09/03 09:58:52;;;;;;;0.20;0.20;;;;;;;;;;5105472;27;20526;-43
2023/09/03 10:01:18;;;;;;;0.10;0.10;;;;;;;;;;5098981;28;20062;-44
2023/09/03 10:03:45;;;;;;;0.15;0.15;;;;;;;;;;5098964;28;20047;-42
2023/09/03 10:06:12;;;;;;;0.20;0.20;;;;;;;;;;5098866;28;20048;-42
2023/09/03 10:08:39;;;;;;;0.10;0.10;;;;;;;;;;5098891;28;20059;-44
2023/09/03 10:11:04;;;;;;;0.10;0.10;;;;;;;;;;5098692;28;20307;-44
2023/09/03 10:13:31;;;;;;;0.10;0.10;;;;;;;;;;5098701;28;20689;-43
2023/09/03 10:15:59;;;;;;;0.20;0.20;;;;;;;;;;5110131;28;20475;-43
2023/09/03 10:18:26;;;;;;;0.10;0.10;;;;;;;;;;5109140;27;20047;-44
2023/09/03 10:20:52;;;;;;;0.10;0.10;;;;;;;;;;5099143;28;20071;-44
2023/09/03 10:23:21;;;;;;;0.20;0.20;;;;;;;;;;5098465;27;20413;-44
2023/09/03 10:25:47;;;;;;;0.10;0.10;;;;;;;;;;5098508;28;20177;-44
2023/09/03 10:28:31;;;;;;;0.10;0.10;;;;;;;;;;5109434;28;20051;-44
2023/09/03 10:30:56;;;;;;;0.10;0.10;;;;;;;;;;5119256;28;20114;-44
2023/09/03 10:33:22;;;;;;;0.10;0.10;;;;;;;;;;5119110;28;20070;-45
2023/09/03 10:36:08;;;;;;;0.20;0.20;;;;;;;;;;5118880;28;20097;-43
2023/09/03 10:38:34;;;;;;;0.10;0.10;;;;;;;;;;5104728;28;20043;-46
2023/09/03 10:41:14;;;;;;;0.13;0.13;;;;;;;;;;5118255;27;20074;-44
2023/09/03 10:43:40;;;;;;;0.10;0.10;;;;;;;;;;5118271;27;20051;-43
2023/09/03 10:46:06;;;;;;;0.10;0.10;;;;;;;;;;5118478;27;20047;-43
2023/09/03 10:48:34;;;;;;;0.10;0.10;;;;;;;;;;5107402;28;20079;-44
2023/09/03 10:51:00;;;;;;;0.10;0.10;;;;;;;;;;5110540;28;20141;-45
2023/09/03 10:53:45;;;;;;;0.10;0.10;;;;;;;;;;5118268;27;20065;-44
2023/09/03 10:56:12;;;;;;;0.10;0.10;;;;;;;;;;5102947;28;20043;-43
2023/09/03 10:58:54;;;;;;;0.20;0.20;;;;;;;;;;5117669;28;20039;-43
2023/09/03 11:01:22;;;;;;;0.10;0.10;;;;;;;;;;5118085;27;20070;-46
2023/09/03 11:03:49;;;;;;;0.10;0.10;;;;;;;;;;5118412;28;20145;-44
2023/09/03 11:06:20;;;;;;;0.10;0.10;;;;;;;;;;5117937;28;20193;-43
2023/09/03 11:08:47;;;;;;;0.10;0.10;;;;;;;;;;5117687;28;20047;-45
2023/09/03 11:11:19;;;;;;;0.10;0.10;;;;;;;;;;5097038;28;20106;-43
2023/09/03 11:13:49;;;;;;;0.10;0.10;;;;;;;;;;5097819;28;20479;-44
2023/09/03 11:16:14;;;;;;;0.20;0.20;;;;;;;;;;5097791;28;20463;-44
2023/09/03 11:18:46;;;;;;;0.10;0.10;;;;;;;;;;5095706;28;20690;-45
2023/09/03 11:21:12;;;;;;;0.10;0.10;;;;;;;;;;5097578;28;20042;-44
2023/09/03 11:23:38;;;;;;;0.10;0.10;;;;;;;;;;5097591;28;20054;-45
2023/09/03 11:26:05;;;;;;;0.17;0.17;;;;;;;;;;5097858;28;20044;-43
2023/09/03 11:28:34;;;;;;;0.10;0.10;;;;;;;;;;5097386;28;20078;-43
2023/09/03 11:31:01;;;;;;;0.15;0.15;;;;;;;;;;5097855;28;20292;-44
2023/09/03 11:33:27;;;;;;;0.10;0.10;;;;;;;;;;5097412;28;20166;-44
2023/09/03 11:35:54;;;;;;;0.17;0.17;;;;;;;;;;5097207;28;20537;-43
2023/09/03 11:38:22;;;;;;;0.10;0.10;;;;;;;;;;5097555;28;20120;-44
2023/09/03 11:40:52;;;;;;;0.20;0.20;;;;;;;;;;5096916;28;20043;-43
2023/09/03 11:43:17;;;;;;;0.10;0.10;;;;;;;;;;5096471;28;20060;-43
2023/09/03 11:45:44;;;;;;;0.10;0.10;;;;;;;;;;5098060;28;20087;-45
2023/09/03 11:48:10;;;;;;;0.10;0.10;;;;;;;;;;5089811;28;20048;-46
2023/09/03 11:50:35;;;;;;;0.10;0.10;;;;;;;;;;5076851;28;20040;-45
2023/09/03 11:53:04;;;;;;;0.10;0.10;;;;;;;;;;5076695;28;20059;-43
2023/09/03 11:55:31;;;;;;;0.10;0.10;;;;;;;;;;5077324;28;20040;-44
2023/09/03 11:58:00;;;;;;;0.20;0.20;;;;;;;;;;5077061;28;20052;-43
2023/09/03 12:00:26;;;;;;;0.20;0.20;;;;;;;;;;5077707;28;20071;-43
2023/09/03 12:02:52;;;;;;;0.30;0.30;;;;;;;;;;5077170;28;20058;-43
2023/09/03 12:05:18;;;;;;;0.10;0.10;;;;;;;;;;5076754;28;20059;-43
2023/09/03 12:07:45;;;;;;;0.10;0.10;;;;;;;;;;5076777;28;20056;-46
2023/09/03 12:10:10;;;;;;;0.10;0.10;;;;;;;;;;5076437;28;20051;-43
2023/09/03 12:12:36;;;;;;;0.20;0.20;;;;;;;;;;5097369;28;20462;-46
2023/09/03 12:15:15;;;;;;;0.10;0.10;;;;;;;;;;5100647;28;20047;-45
2023/09/03 12:17:40;;;;;;;0.20;0.20;;;;;;;;;;5096361;28;20055;-43
2023/09/03 12:20:06;;;;;;;0.17;0.17;;;;;;;;;;5096384;28;20044;-44
2023/09/03 12:22:32;;;;;;;0.10;0.10;;;;;;;;;;5100742;28;20441;-44
2023/09/03 12:25:02;;;;;;;0.10;0.10;;;;;;;;;;5118287;28;20090;-45
2023/09/03 12:27:27;;;;;;;0.10;0.10;;;;;;;;;;5116397;28;20411;-43
2023/09/03 12:29:55;;;;;;;0.10;0.10;;;;;;;;;;5080111;28;20551;-45
2023/09/03 12:32:31;;;;;;;0.10;0.10;;;;;;;;;;5080220;28;20118;-43
2023/09/03 12:34:57;;;;;;;0.20;0.20;;;;;;;;;;5080125;28;20044;-44
2023/09/03 12:37:23;;;;;;;0.45;0.30;;;;;;;;;;5079775;28;20095;-44
2023/09/03 12:39:48;;;;;;;0.20;0.20;;;;;;;;;;5079841;28;20150;-45
2023/09/03 12:42:14;;;;;;;0.10;0.10;;;;;;;;;;5089101;28;20055;-43
2023/09/03 12:44:41;;;;;;;0.10;0.10;;;;;;;;;;5100543;28;20417;-43
2023/09/03 12:47:06;;;;;;;0.20;0.20;;;;;;;;;;5082064;28;20043;-44
2023/09/03 12:49:32;;;;;;;0.13;0.13;;;;;;;;;;5099859;28;20070;-44
2023/09/03 12:51:57;;;;;;;0.10;0.10;;;;;;;;;;5100447;28;20129;-43
2023/09/03 12:54:23;;;;;;;0.10;0.10;;;;;;;;;;5100365;28;20040;-43
2023/09/03 12:56:50;;;;;;;0.10;0.10;;;;;;;;;;5100227;28;20043;-44
2023/09/03 12:59:16;;;;;;;0.10;0.10;;;;;;;;;;5098555;28;20059;-44
2023/09/03 13:01:41;;;;;;;0.20;0.20;;;;;;;;;;5100178;28;20067;-44
2023/09/03 13:04:08;;;;;;;0.10;0.10;;;;;;;;;;5100042;28;20079;-43
2023/09/03 13:06:34;;;;;;;0.10;0.10;;;;;;;;;;5100099;28;20057;-43
2023/09/03 13:08:59;;;;;;;0.10;0.10;;;;;;;;;;5099727;28;20052;-44
2023/09/03 13:11:25;;;;;;;0.10;0.10;;;;;;;;;;5099809;28;20411;-44
2023/09/03 13:13:50;;;;;;;0.15;0.15;;;;;;;;;;5099623;28;20047;-44
2023/09/03 13:16:19;;;;;;;0.10;0.10;;;;;;;;;;5099955;28;20058;-43
2023/09/03 13:18:45;;;;;;;0.10;0.10;;;;;;;;;;5100017;28;20058;-44
2023/09/03 13:21:12;;;;;;;0.20;0.20;;;;;;;;;;5098898;28;20051;-43
2023/09/03 13:23:38;;;;;;;0.15;0.15;;;;;;;;;;5105406;28;20245;-45
2023/09/03 13:26:04;;;;;;;0.10;0.10;;;;;;;;;;5119898;28;20043;-43
2023/09/03 13:28:31;;;;;;;0.10;0.10;;;;;;;;;;5098384;28;20167;-44
2023/09/03 13:30:57;;;;;;;0.10;0.10;;;;;;;;;;5060981;28;20072;-43
2023/09/03 13:33:34;;;;;;;0.10;0.10;;;;;;;;;;5078751;28;20043;-43
2023/09/03 13:35:59;;;;;;;0.10;0.10;;;;;;;;;;5078480;28;20105;-44
2023/09/03 13:38:25;;;;;;;0.10;0.10;;;;;;;;;;5078314;28;20052;-44
2023/09/03 13:40:51;;;;;;;0.10;0.10;;;;;;;;;;5086541;28;20067;-45
2023/09/03 13:43:18;;;;;;;0.20;0.20;;;;;;;;;;5098587;28;20527;-44
2023/09/03 13:45:57;;;;;;;0.10;0.10;;;;;;;;;;5098569;28;20051;-43
2023/09/03 13:48:23;;;;;;;0.20;0.20;;;;;;;;;;5098555;28;20052;-46
2023/09/03 13:50:49;;;;;;;0.10;0.10;;;;;;;;;;5096910;28;20054;-42
2023/09/03 13:53:15;;;;;;;0.10;0.10;;;;;;;;;;5098851;28;20063;-45
2023/09/03 13:55:40;;;;;;;0.20;0.20;;;;;;;;;;5098734;28;20043;-44
2023/09/03 13:58:06;;;;;;;0.10;0.10;;;;;;;;;;5098245;28;20083;-45
2023/09/03 14:00:31;;;;;;;0.10;0.10;;;;;;;;;;5098666;28;20074;-44
2023/09/03 14:02:57;;;;;;;0.10;0.10;;;;;;;;;;5098428;28;20047;-43
2023/09/03 14:05:22;;;;;;;0.10;0.10;;;;;;;;;;5097957;28;20055;-43
2023/09/03 14:07:48;;;;;;;0.10;0.10;;;;;;;;;;5097984;28;20048;-44
2023/09/03 14:10:14;;;;;;;0.20;0.20;;;;;;;;;;5098758;28;20434;-46
2023/09/03 14:12:39;;;;;;;0.10;0.10;;;;;;;;;;5098793;28;20056;-44
2023/09/03 14:15:05;;;;;;;0.10;0.10;;;;;;;;;;5098304;28;20047;-43
2023/09/03 14:17:31;;;;;;;0.10;0.10;;;;;;;;;;5098478;28;20066;-43
2023/09/03 14:19:57;;;;;;;0.17;0.17;;;;;;;;;;5098514;28;20074;-45
2023/09/03 14:22:22;;;;;;;0.20;0.20;;;;;;;;;;5098471;28;20449;-45
2023/09/03 14:24:48;;;;;;;0.20;0.20;;;;;;;;;;5115317;28;20072;-44
2023/09/03 14:27:13;;;;;;;0.10;0.10;;;;;;;;;;5119286;28;20047;-45
2023/09/03 14:29:39;;;;;;;0.10;0.10;;;;;;;;;;5078118;28;20040;-44
2023/09/03 14:32:05;;;;;;;0.10;0.10;;;;;;;;;;5078013;28;20558;-44
2023/09/03 14:34:30;;;;;;;0.10;0.10;;;;;;;;;;5077081;28;20498;-44
2023/09/03 14:36:56;;;;;;;0.10;0.10;;;;;;;;;;5077995;28;20048;-47
2023/09/03 14:39:22;;;;;;;0.20;0.20;;;;;;;;;;5077466;28;20247;-43
2023/09/03 14:41:49;;;;;;;0.10;0.10;;;;;;;;;;5077998;28;20131;-44